Pagrindinis puslapis
METAR-TAF:

METAR-TAF

Oro uostai :

Kanas, Nigerija

platuma: 12-03N, ilguma: 008-32E, Aukštis: 476 m

Dabartinis oras

Ataskaita buvo paskelbta 1 valandą ir 17 minutes, ne 20:00 UTC
Vėjas 6 kt iš Šiaurės/Šiaurės Rytų
Temperatūra 33°C
Drėgmė 24%
Slėgis 1012 hPa
Matomumas: 8000 m

METAR: DNKN 152000Z 03006KT 8000 NSC 33/10 Q1012 NOSIG

Laikas: 22:17 (21:17 UTC)

Prognozė

Ataskaita buvo paskelbta 4 valandos ir 17 minutes, ne 17:00 UTC
Prognozė galioja nuo 15 metu 18 UTC su 16 metu 24 UTC
Vėjas 8 kt iš Vakarų
Matomumas 10 km arba daugiau
nėra debesų žemiau 1500 m ir nėra kamuolinių lietaus debesų

TAF: DNKN 151700Z 1518/1624 27008KT CAVOK

Orai ataskaitas ir orų prognozės (METAR, TAF).

turimą stotys yra geltonos ir raudonos taškus žemėlapyje.

Perkelti pele per norėdami pamatyti stoties vardą.

Tada spustelėkite, norėdami matyti oro stebėjimo ir prognozės.

Norėdami pakeisti žemėlapį: spustelėkite ant žalios mygtukų su juodo kryžiaus žemyn,; žalią mygtuką su brūkšneliu, jei norite nutolinti; arba žalių rodyklių gretimoms žemėlapius.


METAR-TAF: